sensor_id;sensor_type;location;lat;lon;timestamp;P1;durP1;ratioP1;P2;durP2;ratioP2
68888;SDS011;55930;47.412;8.790;2022-12-16T00:01:18;25.30;;;16.40;;
68888;SDS011;55930;47.412;8.790;2022-12-16T00:04:39;26.17;;;15.30;;
68888;SDS011;55930;47.412;8.790;2022-12-16T00:08:00;30.43;;;16.10;;
68888;SDS011;55930;47.412;8.790;2022-12-16T00:11:20;28.07;;;14.90;;
68888;SDS011;55930;47.412;8.790;2022-12-16T00:14:41;27.90;;;16.57;;
68888;SDS011;55930;47.412;8.790;2022-12-16T00:18:01;28.40;;;16.57;;
68888;SDS011;55930;47.412;8.790;2022-12-16T00:21:21;29.60;;;18.33;;
68888;SDS011;55930;47.412;8.790;2022-12-16T00:24:47;32.05;;;18.30;;
68888;SDS011;55930;47.412;8.790;2022-12-16T00:28:08;30.87;;;17.20;;
68888;SDS011;55930;47.412;8.790;2022-12-16T00:31:29;30.05;;;17.77;;
68888;SDS011;55930;47.412;8.790;2022-12-16T00:34:49;27.13;;;15.33;;
68888;SDS011;55930;47.412;8.790;2022-12-16T00:38:10;23.03;;;14.43;;
68888;SDS011;55930;47.412;8.790;2022-12-16T00:41:30;26.37;;;16.30;;
68888;SDS011;55930;47.412;8.790;2022-12-16T00:44:51;25.10;;;15.03;;
68888;SDS011;55930;47.412;8.790;2022-12-16T00:48:13;23.17;;;14.13;;
68888;SDS011;55930;47.412;8.790;2022-12-16T00:51:35;23.25;;;15.30;;
68888;SDS011;55930;47.412;8.790;2022-12-16T00:54:55;19.80;;;12.00;;
68888;SDS011;55930;47.412;8.790;2022-12-16T00:58:15;20.87;;;12.50;;
68888;SDS011;55930;47.412;8.790;2022-12-16T01:01:36;20.10;;;12.20;;
68888;SDS011;55930;47.412;8.790;2022-12-16T01:04:56;16.30;;;10.60;;
68888;SDS011;55930;47.412;8.790;2022-12-16T01:08:17;16.70;;;11.23;;
68888;SDS011;55930;47.412;8.790;2022-12-16T01:11:37;18.50;;;11.23;;
68888;SDS011;55930;47.412;8.790;2022-12-16T01:14:58;18.37;;;11.33;;
68888;SDS011;55930;47.412;8.790;2022-12-16T01:18:20;20.42;;;12.23;;
68888;SDS011;55930;47.412;8.790;2022-12-16T01:21:40;22.55;;;13.60;;
68888;SDS011;55930;47.412;8.790;2022-12-16T01:25:01;21.20;;;13.77;;
68888;SDS011;55930;47.412;8.790;2022-12-16T01:28:22;19.80;;;13.55;;
68888;SDS011;55930;47.412;8.790;2022-12-16T01:31:45;23.08;;;13.73;;
68888;SDS011;55930;47.412;8.790;2022-12-16T01:35:05;22.17;;;12.70;;
68888;SDS011;55930;47.412;8.790;2022-12-16T01:38:26;18.93;;;12.40;;
68888;SDS011;55930;47.412;8.790;2022-12-16T01:41:47;19.33;;;12.00;;
68888;SDS011;55930;47.412;8.790;2022-12-16T01:52:22;20.17;;;12.27;;
68888;SDS011;55930;47.412;8.790;2022-12-16T01:55:48;17.27;;;11.88;;
68888;SDS011;55930;47.412;8.790;2022-12-16T01:59:12;14.32;;;10.73;;
68888;SDS011;55930;47.412;8.790;2022-12-16T02:02:35;16.85;;;10.30;;
68888;SDS011;55930;47.412;8.790;2022-12-16T02:05:57;18.90;;;13.13;;
68888;SDS011;55930;47.412;8.790;2022-12-16T02:09:18;17.45;;;11.63;;
68888;SDS011;55930;47.412;8.790;2022-12-16T02:19:46;17.73;;;11.13;;
68888;SDS011;55930;47.412;8.790;2022-12-16T02:23:50;16.67;;;11.18;;
68888;SDS011;55930;47.412;8.790;2022-12-16T02:30:46;17.52;;;11.98;;
68888;SDS011;55930;47.412;8.790;2022-12-16T02:38:26;17.42;;;11.40;;
68888;SDS011;55930;47.412;8.790;2022-12-16T02:45:36;18.27;;;13.07;;
68888;SDS011;55930;47.412;8.790;2022-12-16T02:49:06;21.58;;;13.98;;
68888;SDS011;55930;47.412;8.790;2022-12-16T02:52:47;18.88;;;13.68;;
68888;SDS011;55930;47.412;8.790;2022-12-16T03:00:12;22.25;;;14.32;;
68888;SDS011;55930;47.412;8.790;2022-12-16T03:07:20;20.30;;;13.55;;
68888;SDS011;55930;47.412;8.790;2022-12-16T03:10:44;21.20;;;13.80;;
68888;SDS011;55930;47.412;8.790;2022-12-16T03:14:11;20.30;;;12.73;;
68888;SDS011;55930;47.412;8.790;2022-12-16T03:17:35;16.25;;;11.65;;
68888;SDS011;55930;47.412;8.790;2022-12-16T03:21:00;19.13;;;13.07;;
68888;SDS011;55930;47.412;8.790;2022-12-16T03:24:24;17.75;;;12.02;;
68888;SDS011;55930;47.412;8.790;2022-12-16T03:27:47;12.77;;;9.90;;
68888;SDS011;55930;47.412;8.790;2022-12-16T03:35:15;16.48;;;10.32;;
68888;SDS011;55930;47.412;8.790;2022-12-16T03:38:39;14.25;;;10.50;;
68888;SDS011;55930;47.412;8.790;2022-12-16T03:42:02;15.65;;;10.63;;
68888;SDS011;55930;47.412;8.790;2022-12-16T03:45:25;15.27;;;10.75;;
68888;SDS011;55930;47.412;8.790;2022-12-16T03:48:50;16.20;;;10.75;;
68888;SDS011;55930;47.412;8.790;2022-12-16T03:52:11;16.83;;;10.48;;
68888;SDS011;55930;47.412;8.790;2022-12-16T03:55:31;14.70;;;10.47;;
68888;SDS011;55930;47.412;8.790;2022-12-16T03:58:52;15.37;;;10.87;;
68888;SDS011;55930;47.412;8.790;2022-12-16T04:02:12;14.83;;;11.20;;
68888;SDS011;55930;47.412;8.790;2022-12-16T04:05:33;14.17;;;11.30;;
68888;SDS011;55930;47.412;8.790;2022-12-16T04:08:54;15.90;;;11.45;;
68888;SDS011;55930;47.412;8.790;2022-12-16T04:12:15;15.90;;;11.77;;
68888;SDS011;55930;47.412;8.790;2022-12-16T04:15:54;16.42;;;12.23;;
68888;SDS011;55930;47.412;8.790;2022-12-16T04:19:36;16.40;;;12.05;;
68888;SDS011;55930;47.412;8.790;2022-12-16T04:23:16;17.10;;;11.95;;
68888;SDS011;55930;47.412;8.790;2022-12-16T04:26:56;18.67;;;12.45;;
68888;SDS011;55930;47.412;8.790;2022-12-16T04:30:35;16.27;;;11.90;;
68888;SDS011;55930;47.412;8.790;2022-12-16T04:33:55;15.80;;;12.37;;
68888;SDS011;55930;47.412;8.790;2022-12-16T04:37:34;19.20;;;13.13;;
68888;SDS011;55930;47.412;8.790;2022-12-16T04:41:13;16.92;;;13.07;;
68888;SDS011;55930;47.412;8.790;2022-12-16T04:44:53;15.57;;;11.80;;
68888;SDS011;55930;47.412;8.790;2022-12-16T04:48:32;16.73;;;12.13;;
68888;SDS011;55930;47.412;8.790;2022-12-16T04:52:10;16.00;;;12.32;;
68888;SDS011;55930;47.412;8.790;2022-12-16T04:55:50;15.10;;;12.23;;
68888;SDS011;55930;47.412;8.790;2022-12-16T04:59:28;14.93;;;11.90;;
68888;SDS011;55930;47.412;8.790;2022-12-16T05:03:07;17.30;;;13.30;;
68888;SDS011;55930;47.412;8.790;2022-12-16T05:06:46;15.48;;;11.98;;
68888;SDS011;55930;47.412;8.790;2022-12-16T05:10:25;17.20;;;12.05;;
68888;SDS011;55930;47.412;8.790;2022-12-16T05:14:04;17.60;;;13.45;;
68888;SDS011;55930;47.412;8.790;2022-12-16T05:17:43;16.38;;;12.27;;
68888;SDS011;55930;47.412;8.790;2022-12-16T05:21:22;15.93;;;12.57;;
68888;SDS011;55930;47.412;8.790;2022-12-16T05:25:01;18.67;;;14.05;;
68888;SDS011;55930;47.412;8.790;2022-12-16T05:28:42;16.05;;;13.00;;
68888;SDS011;55930;47.412;8.790;2022-12-16T05:32:21;18.95;;;14.90;;
68888;SDS011;55930;47.412;8.790;2022-12-16T05:36:00;15.98;;;11.80;;
68888;SDS011;55930;47.412;8.790;2022-12-16T05:39:38;16.73;;;11.57;;
68888;SDS011;55930;47.412;8.790;2022-12-16T05:43:17;17.65;;;12.98;;
68888;SDS011;55930;47.412;8.790;2022-12-16T05:46:56;18.38;;;13.05;;
68888;SDS011;55930;47.412;8.790;2022-12-16T05:50:37;18.88;;;13.40;;
68888;SDS011;55930;47.412;8.790;2022-12-16T05:54:16;17.13;;;12.30;;
68888;SDS011;55930;47.412;8.790;2022-12-16T05:57:55;20.38;;;14.88;;
68888;SDS011;55930;47.412;8.790;2022-12-16T06:01:34;23.75;;;15.90;;
68888;SDS011;55930;47.412;8.790;2022-12-16T06:05:13;18.38;;;13.60;;
68888;SDS011;55930;47.412;8.790;2022-12-16T06:08:52;19.65;;;13.88;;
68888;SDS011;55930;47.412;8.790;2022-12-16T06:12:31;18.80;;;14.32;;
68888;SDS011;55930;47.412;8.790;2022-12-16T06:16:10;21.15;;;14.63;;
68888;SDS011;55930;47.412;8.790;2022-12-16T06:19:49;19.88;;;15.00;;
68888;SDS011;55930;47.412;8.790;2022-12-16T06:23:28;21.80;;;16.33;;
68888;SDS011;55930;47.412;8.790;2022-12-16T06:27:07;20.85;;;15.73;;
68888;SDS011;55930;47.412;8.790;2022-12-16T06:30:46;21.25;;;16.10;;
68888;SDS011;55930;47.412;8.790;2022-12-16T06:34:25;21.52;;;15.90;;
68888;SDS011;55930;47.412;8.790;2022-12-16T06:38:04;21.00;;;15.65;;
68888;SDS011;55930;47.412;8.790;2022-12-16T06:41:43;20.15;;;15.80;;
68888;SDS011;55930;47.412;8.790;2022-12-16T06:45:22;24.15;;;17.73;;
68888;SDS011;55930;47.412;8.790;2022-12-16T06:49:01;20.20;;;15.25;;
68888;SDS011;55930;47.412;8.790;2022-12-16T06:52:41;20.45;;;15.18;;
68888;SDS011;55930;47.412;8.790;2022-12-16T06:56:20;18.33;;;14.40;;
68888;SDS011;55930;47.412;8.790;2022-12-16T06:59:59;17.65;;;14.18;;
68888;SDS011;55930;47.412;8.790;2022-12-16T07:03:38;18.48;;;14.43;;
68888;SDS011;55930;47.412;8.790;2022-12-16T07:07:16;20.55;;;15.35;;
68888;SDS011;55930;47.412;8.790;2022-12-16T07:10:57;19.85;;;15.13;;
68888;SDS011;55930;47.412;8.790;2022-12-16T07:14:36;17.15;;;12.85;;
68888;SDS011;55930;47.412;8.790;2022-12-16T07:18:15;14.20;;;11.15;;
68888;SDS011;55930;47.412;8.790;2022-12-16T07:21:56;14.38;;;11.32;;
68888;SDS011;55930;47.412;8.790;2022-12-16T07:25:37;15.40;;;11.82;;
68888;SDS011;55930;47.412;8.790;2022-12-16T07:29:16;16.67;;;12.60;;
68888;SDS011;55930;47.412;8.790;2022-12-16T07:32:55;15.48;;;12.13;;
68888;SDS011;55930;47.412;8.790;2022-12-16T07:36:34;14.30;;;11.35;;
68888;SDS011;55930;47.412;8.790;2022-12-16T07:40:15;15.40;;;12.27;;
68888;SDS011;55930;47.412;8.790;2022-12-16T07:43:56;17.67;;;13.30;;
68888;SDS011;55930;47.412;8.790;2022-12-16T07:47:45;19.67;;;14.77;;
68888;SDS011;55930;47.412;8.790;2022-12-16T07:51:25;18.67;;;13.77;;
68888;SDS011;55930;47.412;8.790;2022-12-16T07:55:04;19.30;;;14.27;;
68888;SDS011;55930;47.412;8.790;2022-12-16T07:58:43;21.85;;;15.00;;
68888;SDS011;55930;47.412;8.790;2022-12-16T08:02:22;19.60;;;14.68;;
68888;SDS011;55930;47.412;8.790;2022-12-16T08:06:01;22.38;;;15.18;;
68888;SDS011;55930;47.412;8.790;2022-12-16T08:09:39;22.27;;;15.60;;
68888;SDS011;55930;47.412;8.790;2022-12-16T08:13:20;21.35;;;16.35;;
68888;SDS011;55930;47.412;8.790;2022-12-16T08:17:00;18.67;;;13.57;;
68888;SDS011;55930;47.412;8.790;2022-12-16T08:20:39;17.30;;;13.38;;
68888;SDS011;55930;47.412;8.790;2022-12-16T08:24:17;18.67;;;14.00;;
68888;SDS011;55930;47.412;8.790;2022-12-16T08:27:56;17.40;;;13.70;;
68888;SDS011;55930;47.412;8.790;2022-12-16T08:31:43;16.83;;;13.40;;
68888;SDS011;55930;47.412;8.790;2022-12-16T08:35:22;18.90;;;13.95;;
68888;SDS011;55930;47.412;8.790;2022-12-16T08:39:01;23.48;;;15.63;;
68888;SDS011;55930;47.412;8.790;2022-12-16T08:42:41;22.13;;;17.02;;
68888;SDS011;55930;47.412;8.790;2022-12-16T08:46:20;21.73;;;16.25;;
68888;SDS011;55930;47.412;8.790;2022-12-16T08:49:59;23.30;;;17.27;;
68888;SDS011;55930;47.412;8.790;2022-12-16T08:53:38;21.88;;;16.38;;
68888;SDS011;55930;47.412;8.790;2022-12-16T08:57:17;25.80;;;17.52;;
68888;SDS011;55930;47.412;8.790;2022-12-16T09:00:57;24.50;;;16.77;;
68888;SDS011;55930;47.412;8.790;2022-12-16T09:04:38;25.80;;;18.52;;
68888;SDS011;55930;47.412;8.790;2022-12-16T09:08:17;23.95;;;16.58;;
68888;SDS011;55930;47.412;8.790;2022-12-16T09:11:55;22.50;;;17.30;;
68888;SDS011;55930;47.412;8.790;2022-12-16T09:15:37;25.55;;;17.23;;
68888;SDS011;55930;47.412;8.790;2022-12-16T09:19:16;26.15;;;17.70;;
68888;SDS011;55930;47.412;8.790;2022-12-16T09:22:55;26.40;;;18.67;;
68888;SDS011;55930;47.412;8.790;2022-12-16T09:26:34;29.27;;;19.83;;
68888;SDS011;55930;47.412;8.790;2022-12-16T09:30:13;28.02;;;18.65;;
68888;SDS011;55930;47.412;8.790;2022-12-16T09:33:54;27.52;;;19.40;;
68888;SDS011;55930;47.412;8.790;2022-12-16T09:41:17;30.33;;;20.20;;
68888;SDS011;55930;47.412;8.790;2022-12-16T09:53:26;28.65;;;20.38;;
68888;SDS011;55930;47.412;8.790;2022-12-16T09:57:12;26.92;;;19.63;;
68888;SDS011;55930;47.412;8.790;2022-12-16T10:00:54;25.15;;;17.85;;
68888;SDS011;55930;47.412;8.790;2022-12-16T10:04:33;26.23;;;19.63;;
68888;SDS011;55930;47.412;8.790;2022-12-16T10:12:18;27.05;;;19.83;;
68888;SDS011;55930;47.412;8.790;2022-12-16T10:16:05;24.27;;;18.80;;
68888;SDS011;55930;47.412;8.790;2022-12-16T10:20:06;27.05;;;19.13;;
68888;SDS011;55930;47.412;8.790;2022-12-16T10:24:01;27.25;;;19.10;;
68888;SDS011;55930;47.412;8.790;2022-12-16T10:28:06;31.45;;;22.60;;
68888;SDS011;55930;47.412;8.790;2022-12-16T10:35:41;30.80;;;21.17;;
68888;SDS011;55930;47.412;8.790;2022-12-16T10:43:04;31.35;;;22.85;;
68888;SDS011;55930;47.412;8.790;2022-12-16T10:46:50;29.80;;;21.40;;
68888;SDS011;55930;47.412;8.790;2022-12-16T10:50:29;29.35;;;19.88;;
68888;SDS011;55930;47.412;8.790;2022-12-16T10:58:22;29.80;;;21.00;;
68888;SDS011;55930;47.412;8.790;2022-12-16T11:05:55;28.90;;;21.02;;
68888;SDS011;55930;47.412;8.790;2022-12-16T11:09:40;28.88;;;20.85;;
68888;SDS011;55930;47.412;8.790;2022-12-16T11:13:21;30.85;;;21.63;;
68888;SDS011;55930;47.412;8.790;2022-12-16T11:28:43;28.00;;;20.45;;
68888;SDS011;55930;47.412;8.790;2022-12-16T11:32:25;29.98;;;21.95;;
68888;SDS011;55930;47.412;8.790;2022-12-16T11:36:08;28.65;;;19.92;;
68888;SDS011;55930;47.412;8.790;2022-12-16T11:39:52;30.23;;;22.60;;
68888;SDS011;55930;47.412;8.790;2022-12-16T11:43:31;30.88;;;21.95;;
68888;SDS011;55930;47.412;8.790;2022-12-16T11:47:22;28.05;;;20.15;;
68888;SDS011;55930;47.412;8.790;2022-12-16T11:51:22;29.77;;;21.17;;
68888;SDS011;55930;47.412;8.790;2022-12-16T11:55:15;31.77;;;23.35;;
68888;SDS011;55930;47.412;8.790;2022-12-16T11:58:56;30.92;;;22.70;;
68888;SDS011;55930;47.412;8.790;2022-12-16T12:02:44;30.25;;;21.75;;
68888;SDS011;55930;47.412;8.790;2022-12-16T12:06:31;34.55;;;23.27;;
68888;SDS011;55930;47.412;8.790;2022-12-16T12:17:51;30.73;;;22.02;;
68888;SDS011;55930;47.412;8.790;2022-12-16T12:21:43;32.50;;;22.58;;
68888;SDS011;55930;47.412;8.790;2022-12-16T12:33:27;32.67;;;24.25;;
68888;SDS011;55930;47.412;8.790;2022-12-16T12:37:27;35.05;;;24.38;;
68888;SDS011;55930;47.412;8.790;2022-12-16T12:41:17;34.97;;;25.15;;
68888;SDS011;55930;47.412;8.790;2022-12-16T12:56:55;31.88;;;22.52;;
68888;SDS011;55930;47.412;8.790;2022-12-16T13:00:39;26.50;;;18.50;;
68888;SDS011;55930;47.412;8.790;2022-12-16T13:04:23;34.47;;;24.63;;
68888;SDS011;55930;47.412;8.790;2022-12-16T13:15:47;32.00;;;23.23;;
68888;SDS011;55930;47.412;8.790;2022-12-16T13:23:27;37.90;;;25.80;;
68888;SDS011;55930;47.412;8.790;2022-12-16T13:27:13;35.25;;;24.95;;
68888;SDS011;55930;47.412;8.790;2022-12-16T13:30:57;37.08;;;25.10;;
68888;SDS011;55930;47.412;8.790;2022-12-16T13:34:59;33.60;;;24.50;;
68888;SDS011;55930;47.412;8.790;2022-12-16T13:38:48;35.30;;;24.52;;
68888;SDS011;55930;47.412;8.790;2022-12-16T13:42:30;35.47;;;23.83;;
68888;SDS011;55930;47.412;8.790;2022-12-16T13:46:13;35.42;;;25.63;;
68888;SDS011;55930;47.412;8.790;2022-12-16T13:49:53;33.60;;;24.38;;
68888;SDS011;55930;47.412;8.790;2022-12-16T13:53:40;34.42;;;24.70;;
68888;SDS011;55930;47.412;8.790;2022-12-16T14:01:10;33.67;;;23.23;;
68888;SDS011;55930;47.412;8.790;2022-12-16T14:04:53;34.03;;;24.27;;
68888;SDS011;55930;47.412;8.790;2022-12-16T14:08:36;35.10;;;24.23;;
68888;SDS011;55930;47.412;8.790;2022-12-16T14:12:19;31.65;;;22.58;;
68888;SDS011;55930;47.412;8.790;2022-12-16T14:20:11;33.08;;;25.00;;
68888;SDS011;55930;47.412;8.790;2022-12-16T14:23:55;34.15;;;23.92;;
68888;SDS011;55930;47.412;8.790;2022-12-16T14:27:41;35.40;;;24.55;;
68888;SDS011;55930;47.412;8.790;2022-12-16T14:31:24;33.78;;;24.92;;
68888;SDS011;55930;47.412;8.790;2022-12-16T14:35:16;35.97;;;24.73;;
68888;SDS011;55930;47.412;8.790;2022-12-16T14:38:57;33.60;;;24.52;;
68888;SDS011;55930;47.412;8.790;2022-12-16T14:42:38;39.33;;;26.30;;
68888;SDS011;55930;47.412;8.790;2022-12-16T14:46:29;33.22;;;23.42;;
68888;SDS011;55930;47.412;8.790;2022-12-16T14:50:26;36.22;;;24.80;;
68888;SDS011;55930;47.412;8.790;2022-12-16T14:54:10;32.22;;;23.95;;
68888;SDS011;55930;47.412;8.790;2022-12-16T15:01:43;36.80;;;25.10;;
68888;SDS011;55930;47.412;8.790;2022-12-16T15:05:25;34.22;;;24.30;;
68888;SDS011;55930;47.412;8.790;2022-12-16T15:09:18;33.22;;;22.88;;
68888;SDS011;55930;47.412;8.790;2022-12-16T15:13:14;36.10;;;24.15;;
68888;SDS011;55930;47.412;8.790;2022-12-16T15:16:54;34.55;;;24.92;;
68888;SDS011;55930;47.412;8.790;2022-12-16T15:20:36;33.33;;;23.20;;
68888;SDS011;55930;47.412;8.790;2022-12-16T15:24:23;35.40;;;23.98;;
68888;SDS011;55930;47.412;8.790;2022-12-16T15:28:26;34.92;;;22.92;;
68888;SDS011;55930;47.412;8.790;2022-12-16T15:36:04;40.75;;;26.15;;
68888;SDS011;55930;47.412;8.790;2022-12-16T15:39:50;35.35;;;23.33;;
68888;SDS011;55930;47.412;8.790;2022-12-16T15:43:31;37.85;;;25.55;;
68888;SDS011;55930;47.412;8.790;2022-12-16T15:59:28;36.95;;;25.33;;
68888;SDS011;55930;47.412;8.790;2022-12-16T16:03:29;34.75;;;23.08;;
68888;SDS011;55930;47.412;8.790;2022-12-16T16:07:13;34.58;;;22.13;;
68888;SDS011;55930;47.412;8.790;2022-12-16T16:10:55;32.63;;;21.50;;
68888;SDS011;55930;47.412;8.790;2022-12-16T16:14:34;34.03;;;22.45;;
68888;SDS011;55930;47.412;8.790;2022-12-16T16:18:12;31.10;;;21.38;;
68888;SDS011;55930;47.412;8.790;2022-12-16T16:21:51;29.85;;;20.35;;
68888;SDS011;55930;47.412;8.790;2022-12-16T16:25:30;32.22;;;20.67;;
68888;SDS011;55930;47.412;8.790;2022-12-16T16:29:14;27.58;;;17.75;;
68888;SDS011;55930;47.412;8.790;2022-12-16T16:32:53;28.77;;;19.30;;
68888;SDS011;55930;47.412;8.790;2022-12-16T16:36:32;28.00;;;18.20;;
68888;SDS011;55930;47.412;8.790;2022-12-16T16:40:32;25.65;;;17.35;;
68888;SDS011;55930;47.412;8.790;2022-12-16T16:44:14;29.75;;;17.67;;
68888;SDS011;55930;47.412;8.790;2022-12-16T16:48:14;26.13;;;17.88;;
68888;SDS011;55930;47.412;8.790;2022-12-16T16:51:55;26.70;;;17.55;;
68888;SDS011;55930;47.412;8.790;2022-12-16T16:55:34;27.40;;;18.27;;
68888;SDS011;55930;47.412;8.790;2022-12-16T16:59:13;27.30;;;17.27;;
68888;SDS011;55930;47.412;8.790;2022-12-16T17:02:55;26.10;;;15.07;;
68888;SDS011;55930;47.412;8.790;2022-12-16T17:06:33;23.83;;;15.68;;
68888;SDS011;55930;47.412;8.790;2022-12-16T17:10:12;26.15;;;16.52;;
68888;SDS011;55930;47.412;8.790;2022-12-16T17:13:51;29.80;;;18.10;;
68888;SDS011;55930;47.412;8.790;2022-12-16T17:17:30;27.23;;;15.60;;
68888;SDS011;55930;47.412;8.790;2022-12-16T17:21:09;26.27;;;17.30;;
68888;SDS011;55930;47.412;8.790;2022-12-16T17:24:48;28.77;;;18.02;;
68888;SDS011;55930;47.412;8.790;2022-12-16T17:28:26;28.35;;;18.23;;
68888;SDS011;55930;47.412;8.790;2022-12-16T17:32:06;26.95;;;17.38;;
68888;SDS011;55930;47.412;8.790;2022-12-16T17:35:47;25.23;;;16.90;;
68888;SDS011;55930;47.412;8.790;2022-12-16T17:39:27;26.90;;;15.93;;
68888;SDS011;55930;47.412;8.790;2022-12-16T17:43:08;28.70;;;17.52;;
68888;SDS011;55930;47.412;8.790;2022-12-16T17:46:47;33.42;;;19.23;;
68888;SDS011;55930;47.412;8.790;2022-12-16T17:50:26;29.13;;;17.60;;
68888;SDS011;55930;47.412;8.790;2022-12-16T17:54:05;24.70;;;16.20;;
68888;SDS011;55930;47.412;8.790;2022-12-16T17:57:43;28.65;;;18.20;;
68888;SDS011;55930;47.412;8.790;2022-12-16T18:01:22;31.38;;;18.02;;
68888;SDS011;55930;47.412;8.790;2022-12-16T18:05:01;28.77;;;18.13;;
68888;SDS011;55930;47.412;8.790;2022-12-16T18:08:40;28.63;;;18.23;;
68888;SDS011;55930;47.412;8.790;2022-12-16T18:12:23;29.13;;;18.20;;
68888;SDS011;55930;47.412;8.790;2022-12-16T18:16:02;26.05;;;18.05;;
68888;SDS011;55930;47.412;8.790;2022-12-16T18:19:51;25.50;;;17.38;;
68888;SDS011;55930;47.412;8.790;2022-12-16T18:23:31;30.23;;;16.73;;
68888;SDS011;55930;47.412;8.790;2022-12-16T18:27:09;25.77;;;16.40;;
68888;SDS011;55930;47.412;8.790;2022-12-16T18:30:48;26.10;;;17.02;;
68888;SDS011;55930;47.412;8.790;2022-12-16T18:34:27;21.73;;;14.23;;
68888;SDS011;55930;47.412;8.790;2022-12-16T18:38:06;30.58;;;17.45;;
68888;SDS011;55930;47.412;8.790;2022-12-16T18:41:45;30.95;;;17.63;;
68888;SDS011;55930;47.412;8.790;2022-12-16T18:45:24;27.55;;;16.88;;
68888;SDS011;55930;47.412;8.790;2022-12-16T18:49:13;29.77;;;17.48;;
68888;SDS011;55930;47.412;8.790;2022-12-16T18:52:52;30.60;;;18.30;;
68888;SDS011;55930;47.412;8.790;2022-12-16T18:56:32;23.60;;;15.32;;
68888;SDS011;55930;47.412;8.790;2022-12-16T19:00:10;28.10;;;17.25;;
68888;SDS011;55930;47.412;8.790;2022-12-16T19:03:50;25.35;;;16.27;;
68888;SDS011;55930;47.412;8.790;2022-12-16T19:07:30;33.05;;;21.13;;
68888;SDS011;55930;47.412;8.790;2022-12-16T19:11:09;29.15;;;18.33;;
68888;SDS011;55930;47.412;8.790;2022-12-16T19:14:48;28.02;;;17.45;;
68888;SDS011;55930;47.412;8.790;2022-12-16T19:18:46;27.10;;;17.38;;
68888;SDS011;55930;47.412;8.790;2022-12-16T19:22:25;24.10;;;15.02;;
68888;SDS011;55930;47.412;8.790;2022-12-16T19:26:05;24.05;;;15.40;;
68888;SDS011;55930;47.412;8.790;2022-12-16T19:29:43;27.67;;;17.80;;
68888;SDS011;55930;47.412;8.790;2022-12-16T19:33:22;25.10;;;14.63;;
68888;SDS011;55930;47.412;8.790;2022-12-16T19:37:01;26.35;;;14.55;;
68888;SDS011;55930;47.412;8.790;2022-12-16T19:40:50;27.40;;;16.00;;
68888;SDS011;55930;47.412;8.790;2022-12-16T19:44:30;24.15;;;15.20;;
68888;SDS011;55930;47.412;8.790;2022-12-16T19:48:09;24.50;;;14.85;;
68888;SDS011;55930;47.412;8.790;2022-12-16T19:51:47;19.98;;;13.60;;
68888;SDS011;55930;47.412;8.790;2022-12-16T19:55:26;19.10;;;12.80;;
68888;SDS011;55930;47.412;8.790;2022-12-16T19:59:05;17.90;;;12.30;;
68888;SDS011;55930;47.412;8.790;2022-12-16T20:02:44;18.77;;;11.77;;
68888;SDS011;55930;47.412;8.790;2022-12-16T20:06:23;19.52;;;12.05;;
68888;SDS011;55930;47.412;8.790;2022-12-16T20:10:04;18.52;;;12.82;;
68888;SDS011;55930;47.412;8.790;2022-12-16T20:13:44;13.85;;;9.82;;
68888;SDS011;55930;47.412;8.790;2022-12-16T20:17:22;17.20;;;11.57;;
68888;SDS011;55930;47.412;8.790;2022-12-16T20:21:04;16.13;;;11.05;;
68888;SDS011;55930;47.412;8.790;2022-12-16T20:24:43;15.05;;;9.93;;
68888;SDS011;55930;47.412;8.790;2022-12-16T20:28:22;15.75;;;10.38;;
68888;SDS011;55930;47.412;8.790;2022-12-16T20:32:01;16.60;;;11.57;;
68888;SDS011;55930;47.412;8.790;2022-12-16T20:35:40;16.77;;;12.65;;
68888;SDS011;55930;47.412;8.790;2022-12-16T20:39:19;16.27;;;11.30;;
68888;SDS011;55930;47.412;8.790;2022-12-16T20:42:59;16.25;;;12.27;;
68888;SDS011;55930;47.412;8.790;2022-12-16T20:46:38;20.35;;;12.43;;
68888;SDS011;55930;47.412;8.790;2022-12-16T20:50:31;18.23;;;12.27;;
68888;SDS011;55930;47.412;8.790;2022-12-16T20:54:10;20.33;;;13.20;;
68888;SDS011;55930;47.412;8.790;2022-12-16T20:57:49;19.92;;;13.65;;
68888;SDS011;55930;47.412;8.790;2022-12-16T21:01:28;20.05;;;13.88;;
68888;SDS011;55930;47.412;8.790;2022-12-16T21:05:07;19.60;;;13.38;;
68888;SDS011;55930;47.412;8.790;2022-12-16T21:08:46;19.40;;;13.35;;
68888;SDS011;55930;47.412;8.790;2022-12-16T21:12:26;20.75;;;13.88;;
68888;SDS011;55930;47.412;8.790;2022-12-16T21:16:05;20.95;;;14.38;;
68888;SDS011;55930;47.412;8.790;2022-12-16T21:19:44;19.35;;;12.80;;
68888;SDS011;55930;47.412;8.790;2022-12-16T21:23:24;21.50;;;14.60;;
68888;SDS011;55930;47.412;8.790;2022-12-16T21:27:16;21.05;;;13.50;;
68888;SDS011;55930;47.412;8.790;2022-12-16T21:30:56;15.65;;;11.15;;
68888;SDS011;55930;47.412;8.790;2022-12-16T21:34:38;20.15;;;13.00;;
68888;SDS011;55930;47.412;8.790;2022-12-16T21:38:17;17.08;;;12.07;;
68888;SDS011;55930;47.412;8.790;2022-12-16T21:41:55;18.60;;;14.20;;
68888;SDS011;55930;47.412;8.790;2022-12-16T21:45:34;18.13;;;12.52;;
68888;SDS011;55930;47.412;8.790;2022-12-16T21:49:13;20.95;;;14.40;;
68888;SDS011;55930;47.412;8.790;2022-12-16T21:52:52;18.08;;;12.50;;
68888;SDS011;55930;47.412;8.790;2022-12-16T21:56:30;21.20;;;14.10;;
68888;SDS011;55930;47.412;8.790;2022-12-16T22:00:10;22.15;;;14.55;;
68888;SDS011;55930;47.412;8.790;2022-12-16T22:03:49;19.45;;;14.05;;
68888;SDS011;55930;47.412;8.790;2022-12-16T22:07:28;21.73;;;14.05;;
68888;SDS011;55930;47.412;8.790;2022-12-16T22:11:10;17.55;;;13.57;;
68888;SDS011;55930;47.412;8.790;2022-12-16T22:14:51;23.05;;;13.88;;
68888;SDS011;55930;47.412;8.790;2022-12-16T22:18:30;22.85;;;14.40;;
68888;SDS011;55930;47.412;8.790;2022-12-16T22:22:09;20.33;;;13.45;;
68888;SDS011;55930;47.412;8.790;2022-12-16T22:25:53;23.42;;;15.30;;
68888;SDS011;55930;47.412;8.790;2022-12-16T22:29:33;21.17;;;15.55;;
68888;SDS011;55930;47.412;8.790;2022-12-16T22:33:12;23.27;;;16.55;;
68888;SDS011;55930;47.412;8.790;2022-12-16T22:36:51;20.48;;;14.30;;
68888;SDS011;55930;47.412;8.790;2022-12-16T22:40:30;22.92;;;15.45;;
68888;SDS011;55930;47.412;8.790;2022-12-16T22:44:08;22.58;;;14.68;;
68888;SDS011;55930;47.412;8.790;2022-12-16T22:47:48;25.58;;;16.35;;
68888;SDS011;55930;47.412;8.790;2022-12-16T22:51:26;22.17;;;16.13;;
68888;SDS011;55930;47.412;8.790;2022-12-16T22:55:05;24.85;;;16.88;;
68888;SDS011;55930;47.412;8.790;2022-12-16T22:58:44;23.48;;;14.43;;
68888;SDS011;55930;47.412;8.790;2022-12-16T23:02:24;25.92;;;17.38;;
68888;SDS011;55930;47.412;8.790;2022-12-16T23:06:03;24.60;;;17.40;;
68888;SDS011;55930;47.412;8.790;2022-12-16T23:09:42;23.23;;;15.40;;
68888;SDS011;55930;47.412;8.790;2022-12-16T23:13:21;24.42;;;17.02;;
68888;SDS011;55930;47.412;8.790;2022-12-16T23:17:03;25.45;;;18.27;;
68888;SDS011;55930;47.412;8.790;2022-12-16T23:20:45;22.38;;;15.52;;
68888;SDS011;55930;47.412;8.790;2022-12-16T23:24:25;28.20;;;18.33;;
68888;SDS011;55930;47.412;8.790;2022-12-16T23:28:04;29.33;;;19.83;;
68888;SDS011;55930;47.412;8.790;2022-12-16T23:31:43;26.95;;;16.42;;
68888;SDS011;55930;47.412;8.790;2022-12-16T23:35:22;29.88;;;17.25;;
68888;SDS011;55930;47.412;8.790;2022-12-16T23:39:01;30.75;;;18.90;;
68888;SDS011;55930;47.412;8.790;2022-12-16T23:42:42;31.67;;;18.92;;